sensor_id;sensor_type;location;lat;lon;timestamp;pressure;altitude;pressure_sealevel;temperature;humidity
17060;BME280;8646;49.716;9.266;2022-11-06T00:00:29;100743.78;;;7.53;100.00
17060;BME280;8646;49.716;9.266;2022-11-06T00:03:32;100743.69;;;7.56;100.00
17060;BME280;8646;49.716;9.266;2022-11-06T00:06:36;100740.13;;;7.54;100.00
17060;BME280;8646;49.716;9.266;2022-11-06T00:09:50;100750.25;;;7.45;100.00
17060;BME280;8646;49.716;9.266;2022-11-06T00:12:53;100739.59;;;7.39;100.00
17060;BME280;8646;49.716;9.266;2022-11-06T00:16:01;100727.47;;;7.21;100.00
17060;BME280;8646;49.716;9.266;2022-11-06T00:19:04;100740.78;;;7.27;100.00
17060;BME280;8646;49.716;9.266;2022-11-06T00:22:08;100731.06;;;7.21;100.00
17060;BME280;8646;49.716;9.266;2022-11-06T00:25:11;100733.63;;;7.26;100.00
17060;BME280;8646;49.716;9.266;2022-11-06T00:28:14;100732.88;;;7.19;100.00
17060;BME280;8646;49.716;9.266;2022-11-06T00:31:18;100731.06;;;7.21;100.00
17060;BME280;8646;49.716;9.266;2022-11-06T00:34:21;100738.25;;;7.19;100.00
17060;BME280;8646;49.716;9.266;2022-11-06T00:37:25;100730.97;;;7.24;100.00
17060;BME280;8646;49.716;9.266;2022-11-06T00:40:28;100720.75;;;7.39;100.00
17060;BME280;8646;49.716;9.266;2022-11-06T00:43:31;100718.75;;;7.47;100.00
17060;BME280;8646;49.716;9.266;2022-11-06T00:46:36;100725.09;;;7.46;100.00
17060;BME280;8646;49.716;9.266;2022-11-06T00:49:39;100726.84;;;7.47;100.00
17060;BME280;8646;49.716;9.266;2022-11-06T00:52:43;100721.47;;;7.47;100.00
17060;BME280;8646;49.716;9.266;2022-11-06T00:55:46;100717.13;;;7.40;100.00
17060;BME280;8646;49.716;9.266;2022-11-06T00:58:50;100719.06;;;7.35;100.00
17060;BME280;8646;49.716;9.266;2022-11-06T01:01:53;100715.75;;;7.22;100.00
17060;BME280;8646;49.716;9.266;2022-11-06T01:04:56;100728.22;;;7.27;100.00
17060;BME280;8646;49.716;9.266;2022-11-06T01:08:00;100721.09;;;7.23;100.00
17060;BME280;8646;49.716;9.266;2022-11-06T01:11:09;100716.00;;;7.13;100.00
17060;BME280;8646;49.716;9.266;2022-11-06T01:14:14;100711.59;;;7.07;100.00
17060;BME280;8646;49.716;9.266;2022-11-06T01:17:17;100711.00;;;6.95;100.00
17060;BME280;8646;49.716;9.266;2022-11-06T01:20:20;100710.38;;;6.82;100.00
17060;BME280;8646;49.716;9.266;2022-11-06T01:23:24;100697.88;;;6.79;100.00
17060;BME280;8646;49.716;9.266;2022-11-06T01:26:28;100694.63;;;7.05;100.00
17060;BME280;8646;49.716;9.266;2022-11-06T01:29:41;100700.38;;;6.88;100.00
17060;BME280;8646;49.716;9.266;2022-11-06T01:32:44;100696.63;;;6.96;100.00
17060;BME280;8646;49.716;9.266;2022-11-06T01:35:47;100697.53;;;6.96;100.00
17060;BME280;8646;49.716;9.266;2022-11-06T01:38:54;100694.78;;;6.98;100.00
17060;BME280;8646;49.716;9.266;2022-11-06T01:41:57;100687.72;;;6.94;100.00
17060;BME280;8646;49.716;9.266;2022-11-06T01:45:20;100693.09;;;6.94;100.00
17060;BME280;8646;49.716;9.266;2022-11-06T01:48:26;100686.75;;;6.96;100.00
17060;BME280;8646;49.716;9.266;2022-11-06T01:51:31;100667.41;;;6.79;100.00
17060;BME280;8646;49.716;9.266;2022-11-06T01:54:38;100678.81;;;6.90;100.00
17060;BME280;8646;49.716;9.266;2022-11-06T01:57:42;100678.44;;;7.07;100.00
17060;BME280;8646;49.716;9.266;2022-11-06T02:00:45;100680.16;;;7.11;100.00
17060;BME280;8646;49.716;9.266;2022-11-06T02:03:55;100672.16;;;7.06;100.00
17060;BME280;8646;49.716;9.266;2022-11-06T02:07:02;100673.16;;;7.02;100.00
17060;BME280;8646;49.716;9.266;2022-11-06T02:10:07;100676.66;;;7.06;100.00
17060;BME280;8646;49.716;9.266;2022-11-06T02:13:16;100679.59;;;6.97;100.00
17060;BME280;8646;49.716;9.266;2022-11-06T02:16:26;100684.28;;;6.87;100.00
17060;BME280;8646;49.716;9.266;2022-11-06T02:19:50;100683.69;;;6.73;100.00
17060;BME280;8646;49.716;9.266;2022-11-06T02:23:05;100671.75;;;6.84;100.00
17060;BME280;8646;49.716;9.266;2022-11-06T02:26:27;100666.41;;;6.83;100.00
17060;BME280;8646;49.716;9.266;2022-11-06T02:29:41;100670.88;;;6.84;100.00
17060;BME280;8646;49.716;9.266;2022-11-06T02:32:50;100665.28;;;6.93;100.00
17060;BME280;8646;49.716;9.266;2022-11-06T02:35:59;100667.28;;;6.83;100.00
17060;BME280;8646;49.716;9.266;2022-11-06T02:39:08;100662.03;;;6.79;100.00
17060;BME280;8646;49.716;9.266;2022-11-06T02:42:15;100658.44;;;6.80;100.00
17060;BME280;8646;49.716;9.266;2022-11-06T02:45:22;100648.03;;;6.63;100.00
17060;BME280;8646;49.716;9.266;2022-11-06T02:48:29;100650.41;;;6.77;100.00
17060;BME280;8646;49.716;9.266;2022-11-06T02:51:37;100647.00;;;6.69;100.00
17060;BME280;8646;49.716;9.266;2022-11-06T02:54:44;100657.75;;;6.69;100.00
17060;BME280;8646;49.716;9.266;2022-11-06T02:57:52;100657.81;;;6.66;100.00
17060;BME280;8646;49.716;9.266;2022-11-06T03:01:02;100639.97;;;6.63;100.00
17060;BME280;8646;49.716;9.266;2022-11-06T03:04:11;100651.84;;;6.51;100.00
17060;BME280;8646;49.716;9.266;2022-11-06T03:07:23;100643.56;;;6.62;100.00
17060;BME280;8646;49.716;9.266;2022-11-06T03:10:33;100647.00;;;6.69;100.00
17060;BME280;8646;49.716;9.266;2022-11-06T03:13:48;100637.16;;;6.68;100.00
17060;BME280;8646;49.716;9.266;2022-11-06T03:16:57;100644.28;;;6.70;100.00
17060;BME280;8646;49.716;9.266;2022-11-06T03:20:08;100639.00;;;6.66;100.00
17060;BME280;8646;49.716;9.266;2022-11-06T03:23:21;100637.25;;;6.65;100.00
17060;BME280;8646;49.716;9.266;2022-11-06T03:26:31;100640.75;;;6.67;100.00
17060;BME280;8646;49.716;9.266;2022-11-06T03:29:37;100633.63;;;6.66;100.00
17060;BME280;8646;49.716;9.266;2022-11-06T03:32:46;100638.28;;;6.58;100.00
17060;BME280;8646;49.716;9.266;2022-11-06T03:35:54;100637.66;;;6.45;100.00
17060;BME280;8646;49.716;9.266;2022-11-06T03:39:02;100641.44;;;6.36;100.00
17060;BME280;8646;49.716;9.266;2022-11-06T03:42:09;100645.03;;;6.35;100.00
17060;BME280;8646;49.716;9.266;2022-11-06T03:45:19;100645.00;;;6.37;100.00
17060;BME280;8646;49.716;9.266;2022-11-06T03:48:28;100637.56;;;6.49;100.00
17060;BME280;8646;49.716;9.266;2022-11-06T03:51:39;100635.50;;;6.62;100.00
17060;BME280;8646;49.716;9.266;2022-11-06T03:54:47;100641.19;;;6.48;100.00
17060;BME280;8646;49.716;9.266;2022-11-06T03:57:54;100617.72;;;6.57;100.00
17060;BME280;8646;49.716;9.266;2022-11-06T04:01:02;100611.56;;;6.50;100.00
17060;BME280;8646;49.716;9.266;2022-11-06T04:04:11;100607.91;;;6.54;100.00
17060;BME280;8646;49.716;9.266;2022-11-06T04:07:19;100619.78;;;6.42;100.00
17060;BME280;8646;49.716;9.266;2022-11-06T04:10:24;100624.53;;;6.30;100.00
17060;BME280;8646;49.716;9.266;2022-11-06T04:13:45;100621.19;;;6.19;100.00
17060;BME280;8646;49.716;9.266;2022-11-06T04:17:06;100637.31;;;6.19;100.00
17060;BME280;8646;49.716;9.266;2022-11-06T04:20:16;100645.31;;;6.22;100.00
17060;BME280;8646;49.716;9.266;2022-11-06T04:23:41;100629.38;;;6.11;100.00
17060;BME280;8646;49.716;9.266;2022-11-06T04:26:56;100623.25;;;6.04;100.00
17060;BME280;8646;49.716;9.266;2022-11-06T04:30:06;100608.03;;;6.05;100.00
17060;BME280;8646;49.716;9.266;2022-11-06T04:33:13;100625.09;;;6.01;100.00
17060;BME280;8646;49.716;9.266;2022-11-06T04:36:27;100615.31;;;5.98;100.00
17060;BME280;8646;49.716;9.266;2022-11-06T04:39:39;100613.72;;;5.87;100.00
17060;BME280;8646;49.716;9.266;2022-11-06T04:42:49;100616.50;;;5.82;100.00
17060;BME280;8646;49.716;9.266;2022-11-06T04:45:58;100604.72;;;5.91;100.00
17060;BME280;8646;49.716;9.266;2022-11-06T04:49:04;100603.88;;;5.86;100.00
17060;BME280;8646;49.716;9.266;2022-11-06T04:52:12;100600.28;;;5.87;100.00
17060;BME280;8646;49.716;9.266;2022-11-06T04:55:19;100601.13;;;5.92;100.00
17060;BME280;8646;49.716;9.266;2022-11-06T04:58:23;100586.72;;;5.96;100.00
17060;BME280;8646;49.716;9.266;2022-11-06T05:01:26;100592.13;;;5.93;100.00
17060;BME280;8646;49.716;9.266;2022-11-06T05:04:29;100599.41;;;5.88;100.00
17060;BME280;8646;49.716;9.266;2022-11-06T05:07:34;100604.72;;;5.91;100.00
17060;BME280;8646;49.716;9.266;2022-11-06T05:10:37;100596.66;;;5.91;100.00
17060;BME280;8646;49.716;9.266;2022-11-06T05:13:40;100610.16;;;5.85;100.00
17060;BME280;8646;49.716;9.266;2022-11-06T05:16:43;100621.84;;;5.84;100.00
17060;BME280;8646;49.716;9.266;2022-11-06T05:19:47;100627.28;;;5.79;100.00
17060;BME280;8646;49.716;9.266;2022-11-06T05:22:52;100621.09;;;5.75;100.00
17060;BME280;8646;49.716;9.266;2022-11-06T05:26:01;100606.00;;;5.68;100.00
17060;BME280;8646;49.716;9.266;2022-11-06T05:29:05;100608.34;;;5.87;100.00
17060;BME280;8646;49.716;9.266;2022-11-06T05:32:08;100611.03;;;5.88;100.00
17060;BME280;8646;49.716;9.266;2022-11-06T05:35:11;100620.84;;;5.91;100.00
17060;BME280;8646;49.716;9.266;2022-11-06T05:38:15;100632.53;;;5.88;100.00
17060;BME280;8646;49.716;9.266;2022-11-06T05:41:18;100621.88;;;5.82;100.00
17060;BME280;8646;49.716;9.266;2022-11-06T05:44:21;100633.66;;;5.73;100.00
17060;BME280;8646;49.716;9.266;2022-11-06T05:47:24;100632.50;;;5.90;100.00
17060;BME280;8646;49.716;9.266;2022-11-06T05:50:27;100634.31;;;5.88;100.00
17060;BME280;8646;49.716;9.266;2022-11-06T05:53:32;100614.47;;;5.95;100.00
17060;BME280;8646;49.716;9.266;2022-11-06T05:56:36;100611.00;;;5.91;100.00
17060;BME280;8646;49.716;9.266;2022-11-06T05:59:39;100603.72;;;5.96;100.00
17060;BME280;8646;49.716;9.266;2022-11-06T06:02:42;100597.72;;;5.81;100.00
17060;BME280;8646;49.716;9.266;2022-11-06T06:05:46;100590.25;;;5.99;100.00
17060;BME280;8646;49.716;9.266;2022-11-06T06:08:50;100584.03;;;5.96;100.00
17060;BME280;8646;49.716;9.266;2022-11-06T06:11:53;100584.03;;;5.94;100.00
17060;BME280;8646;49.716;9.266;2022-11-06T06:14:56;100584.03;;;5.94;100.00
17060;BME280;8646;49.716;9.266;2022-11-06T06:17:59;100587.53;;;5.99;100.00
17060;BME280;8646;49.716;9.266;2022-11-06T06:21:03;100597.50;;;5.93;100.00
17060;BME280;8646;49.716;9.266;2022-11-06T06:24:09;100601.97;;;5.94;100.00
17060;BME280;8646;49.716;9.266;2022-11-06T06:27:12;100581.38;;;5.93;100.00
17060;BME280;8646;49.716;9.266;2022-11-06T06:30:16;100585.06;;;5.89;100.00
17060;BME280;8646;49.716;9.266;2022-11-06T06:33:19;100584.19;;;5.85;100.00
17060;BME280;8646;49.716;9.266;2022-11-06T06:36:22;100577.91;;;5.88;100.00
17060;BME280;8646;49.716;9.266;2022-11-06T06:39:26;100563.53;;;5.92;100.00
17060;BME280;8646;49.716;9.266;2022-11-06T06:42:30;100567.19;;;5.85;100.00
17060;BME280;8646;49.716;9.266;2022-11-06T06:45:33;100573.41;;;5.87;100.00
17060;BME280;8646;49.716;9.266;2022-11-06T06:48:36;100575.19;;;5.91;100.00
17060;BME280;8646;49.716;9.266;2022-11-06T06:51:39;100583.38;;;5.82;100.00
17060;BME280;8646;49.716;9.266;2022-11-06T06:54:44;100579.69;;;5.87;100.00
17060;BME280;8646;49.716;9.266;2022-11-06T06:57:47;100568.91;;;5.92;100.00
17060;BME280;8646;49.716;9.266;2022-11-06T07:00:50;100554.69;;;5.84;100.00
17060;BME280;8646;49.716;9.266;2022-11-06T07:03:55;100533.81;;;5.99;99.51
17060;BME280;8646;49.716;9.266;2022-11-06T07:07:06;100534.78;;;5.95;100.00
17060;BME280;8646;49.716;9.266;2022-11-06T07:10:10;100531.91;;;6.04;99.38
17060;BME280;8646;49.716;9.266;2022-11-06T07:13:13;100525.84;;;5.95;99.71
17060;BME280;8646;49.716;9.266;2022-11-06T07:16:16;100520.38;;;5.99;100.00
17060;BME280;8646;49.716;9.266;2022-11-06T07:19:22;100510.41;;;6.04;99.79
17060;BME280;8646;49.716;9.266;2022-11-06T07:22:25;100505.16;;;6.00;100.00
17060;BME280;8646;49.716;9.266;2022-11-06T07:25:38;100497.91;;;6.03;100.00
17060;BME280;8646;49.716;9.266;2022-11-06T07:28:41;100498.53;;;6.16;100.00
17060;BME280;8646;49.716;9.266;2022-11-06T07:31:44;100492.03;;;6.25;99.26
17060;BME280;8646;49.716;9.266;2022-11-06T07:34:48;100493.97;;;6.20;99.73
17060;BME280;8646;49.716;9.266;2022-11-06T07:37:51;100487.50;;;6.28;99.50
17060;BME280;8646;49.716;9.266;2022-11-06T07:41:00;100478.47;;;6.32;98.67
17060;BME280;8646;49.716;9.266;2022-11-06T07:44:03;100472.31;;;6.26;98.93
17060;BME280;8646;49.716;9.266;2022-11-06T07:47:06;100467.59;;;6.37;98.24
17060;BME280;8646;49.716;9.266;2022-11-06T07:50:09;100485.56;;;6.33;99.33
17060;BME280;8646;49.716;9.266;2022-11-06T07:53:18;100484.53;;;6.40;99.01
17060;BME280;8646;49.716;9.266;2022-11-06T07:56:22;100489.66;;;6.51;97.10
17060;BME280;8646;49.716;9.266;2022-11-06T07:59:25;100488.00;;;6.45;97.03
17060;BME280;8646;49.716;9.266;2022-11-06T08:02:27;100471.38;;;6.28;97.52
17060;BME280;8646;49.716;9.266;2022-11-06T08:05:32;100468.91;;;6.18;99.10
17060;BME280;8646;49.716;9.266;2022-11-06T08:08:35;100469.78;;;6.18;99.56
17060;BME280;8646;49.716;9.266;2022-11-06T08:11:40;100470.59;;;6.23;99.25
17060;BME280;8646;49.716;9.266;2022-11-06T08:14:45;100471.38;;;6.28;100.00
17060;BME280;8646;49.716;9.266;2022-11-06T08:17:50;100460.41;;;6.37;99.95
17060;BME280;8646;49.716;9.266;2022-11-06T08:20:54;100448.59;;;6.44;99.43
17060;BME280;8646;49.716;9.266;2022-11-06T08:23:57;100449.34;;;6.49;99.37
17060;BME280;8646;49.716;9.266;2022-11-06T08:27:01;100457.28;;;6.56;99.46
17060;BME280;8646;49.716;9.266;2022-11-06T08:30:05;100450.03;;;6.58;99.53
17060;BME280;8646;49.716;9.266;2022-11-06T08:33:09;100445.53;;;6.60;99.38
17060;BME280;8646;49.716;9.266;2022-11-06T08:36:13;100431.91;;;6.66;99.32
17060;BME280;8646;49.716;9.266;2022-11-06T08:39:18;100434.41;;;6.73;99.40
17060;BME280;8646;49.716;9.266;2022-11-06T08:42:23;100435.97;;;6.82;99.46
17060;BME280;8646;49.716;9.266;2022-11-06T08:45:27;100431.38;;;6.87;98.55
17060;BME280;8646;49.716;9.266;2022-11-06T08:48:30;100430.50;;;6.86;98.05
17060;BME280;8646;49.716;9.266;2022-11-06T08:51:33;100433.19;;;6.86;98.34
17060;BME280;8646;49.716;9.266;2022-11-06T08:54:36;100432.47;;;6.80;99.11
17060;BME280;8646;49.716;9.266;2022-11-06T08:57:41;100427.88;;;6.83;98.69
17060;BME280;8646;49.716;9.266;2022-11-06T09:00:48;100436.63;;;6.92;98.36
17060;BME280;8646;49.716;9.266;2022-11-06T09:03:52;100444.84;;;6.87;98.43
17060;BME280;8646;49.716;9.266;2022-11-06T09:06:55;100444.72;;;6.92;99.03
17060;BME280;8646;49.716;9.266;2022-11-06T09:09:58;100445.31;;;7.03;98.75
17060;BME280;8646;49.716;9.266;2022-11-06T09:13:02;100453.56;;;6.97;98.77
17060;BME280;8646;49.716;9.266;2022-11-06T09:16:05;100453.66;;;6.92;99.23
17060;BME280;8646;49.716;9.266;2022-11-06T09:19:16;100447.34;;;6.95;100.00
17060;BME280;8646;49.716;9.266;2022-11-06T09:22:18;100434.16;;;7.18;98.72
17060;BME280;8646;49.716;9.266;2022-11-06T09:25:21;100431.00;;;7.35;97.67
17060;BME280;8646;49.716;9.266;2022-11-06T09:28:25;100427.41;;;7.34;98.03
17060;BME280;8646;49.716;9.266;2022-11-06T09:31:28;100408.06;;;7.52;96.75
17060;BME280;8646;49.716;9.266;2022-11-06T09:34:31;100409.72;;;7.56;96.21
17060;BME280;8646;49.716;9.266;2022-11-06T09:37:34;100417.84;;;7.55;96.95
17060;BME280;8646;49.716;9.266;2022-11-06T09:40:40;100409.69;;;7.58;96.15
17060;BME280;8646;49.716;9.266;2022-11-06T09:43:56;100410.72;;;7.54;96.95
17060;BME280;8646;49.716;9.266;2022-11-06T09:47:13;100380.34;;;7.47;96.69
17060;BME280;8646;49.716;9.266;2022-11-06T09:50:21;100387.28;;;7.56;96.84
17060;BME280;8646;49.716;9.266;2022-11-06T09:53:29;100379.69;;;7.70;96.43
17060;BME280;8646;49.716;9.266;2022-11-06T09:56:34;100388.59;;;7.72;95.38
17060;BME280;8646;49.716;9.266;2022-11-06T09:59:41;100389.53;;;7.71;96.53
17060;BME280;8646;49.716;9.266;2022-11-06T10:02:46;100373.31;;;7.73;95.65
17060;BME280;8646;49.716;9.266;2022-11-06T10:05:51;100372.53;;;7.69;96.52
17060;BME280;8646;49.716;9.266;2022-11-06T10:08:58;100376.63;;;7.82;95.91
17060;BME280;8646;49.716;9.266;2022-11-06T10:12:09;100369.47;;;7.81;96.29
17060;BME280;8646;49.716;9.266;2022-11-06T10:15:22;100356.84;;;7.83;97.19
17060;BME280;8646;49.716;9.266;2022-11-06T10:18:33;100348.59;;;7.88;95.83
17060;BME280;8646;49.716;9.266;2022-11-06T10:21:45;100351.25;;;7.89;96.53
17060;BME280;8646;49.716;9.266;2022-11-06T10:24:55;100350.31;;;7.90;95.84
17060;BME280;8646;49.716;9.266;2022-11-06T10:28:10;100331.53;;;7.87;96.05
17060;BME280;8646;49.716;9.266;2022-11-06T10:31:27;100321.59;;;7.89;95.96
17060;BME280;8646;49.716;9.266;2022-11-06T10:34:36;100319.56;;;7.97;95.41
17060;BME280;8646;49.716;9.266;2022-11-06T10:37:46;100316.09;;;7.94;95.60
17060;BME280;8646;49.716;9.266;2022-11-06T10:40:50;100291.72;;;7.97;95.29
17060;BME280;8646;49.716;9.266;2022-11-06T10:43:58;100287.50;;;7.88;96.04
17060;BME280;8646;49.716;9.266;2022-11-06T10:47:10;100272.91;;;7.95;96.34
17060;BME280;8646;49.716;9.266;2022-11-06T10:50:17;100256.56;;;8.01;96.10
17060;BME280;8646;49.716;9.266;2022-11-06T10:53:27;100244.78;;;8.04;96.57
17060;BME280;8646;49.716;9.266;2022-11-06T10:56:44;100235.13;;;8.23;94.92
17060;BME280;8646;49.716;9.266;2022-11-06T10:59:50;100233.22;;;8.27;95.12
17060;BME280;8646;49.716;9.266;2022-11-06T11:02:56;100220.44;;;8.33;94.02
17060;BME280;8646;49.716;9.266;2022-11-06T11:05:59;100217.56;;;8.38;93.85
17060;BME280;8646;49.716;9.266;2022-11-06T11:09:25;100210.41;;;8.37;94.21
17060;BME280;8646;49.716;9.266;2022-11-06T11:12:30;100207.28;;;8.49;93.18
17060;BME280;8646;49.716;9.266;2022-11-06T11:15:38;100190.38;;;8.44;94.21
17060;BME280;8646;49.716;9.266;2022-11-06T11:18:47;100200.56;;;8.61;94.58
17060;BME280;8646;49.716;9.266;2022-11-06T11:21:52;100191.50;;;8.87;93.56
17060;BME280;8646;49.716;9.266;2022-11-06T11:25:00;100189.00;;;9.05;92.12
17060;BME280;8646;49.716;9.266;2022-11-06T11:28:03;100183.06;;;8.96;93.31
17060;BME280;8646;49.716;9.266;2022-11-06T11:31:08;100175.78;;;9.21;92.57
17060;BME280;8646;49.716;9.266;2022-11-06T11:34:17;100172.34;;;9.39;91.62
17060;BME280;8646;49.716;9.266;2022-11-06T11:37:23;100171.84;;;9.51;90.72
17060;BME280;8646;49.716;9.266;2022-11-06T11:40:34;100160.66;;;9.61;90.33
17060;BME280;8646;49.716;9.266;2022-11-06T11:43:38;100163.91;;;9.69;90.72
17060;BME280;8646;49.716;9.266;2022-11-06T11:46:45;100161.28;;;9.89;90.46
17060;BME280;8646;49.716;9.266;2022-11-06T11:49:50;100151.97;;;9.96;89.94
17060;BME280;8646;49.716;9.266;2022-11-06T11:52:57;100149.66;;;10.07;89.80
17060;BME280;8646;49.716;9.266;2022-11-06T11:56:06;100131.06;;;10.21;88.05
17060;BME280;8646;49.716;9.266;2022-11-06T11:59:17;100113.44;;;10.31;86.69
17060;BME280;8646;49.716;9.266;2022-11-06T12:02:23;100106.50;;;10.26;87.49
17060;BME280;8646;49.716;9.266;2022-11-06T12:05:33;100089.75;;;10.16;88.42
17060;BME280;8646;49.716;9.266;2022-11-06T12:08:37;100101.69;;;10.53;85.86
17060;BME280;8646;49.716;9.266;2022-11-06T12:11:42;100095.88;;;10.42;85.92
17060;BME280;8646;49.716;9.266;2022-11-06T12:14:45;100083.81;;;10.49;86.73
17060;BME280;8646;49.716;9.266;2022-11-06T12:17:51;100077.44;;;10.50;86.23
17060;BME280;8646;49.716;9.266;2022-11-06T12:21:00;100068.97;;;10.57;85.92
17060;BME280;8646;49.716;9.266;2022-11-06T12:24:11;100072.34;;;10.62;85.66
17060;BME280;8646;49.716;9.266;2022-11-06T12:27:17;100061.53;;;10.81;84.43
17060;BME280;8646;49.716;9.266;2022-11-06T12:30:23;100058.19;;;10.76;85.34
17060;BME280;8646;49.716;9.266;2022-11-06T12:33:27;100050.41;;;10.87;84.93
17060;BME280;8646;49.716;9.266;2022-11-06T12:37:07;100008.56;;;10.76;85.93
17060;BME280;8646;49.716;9.266;2022-11-06T12:40:18;100017.91;;;11.06;85.32
17060;BME280;8646;49.716;9.266;2022-11-06T12:43:32;100005.72;;;11.15;84.28
17060;BME280;8646;49.716;9.266;2022-11-06T12:46:44;99979.94;;;11.25;84.10
17060;BME280;8646;49.716;9.266;2022-11-06T12:50:08;99960.41;;;11.35;82.72
17060;BME280;8646;49.716;9.266;2022-11-06T12:53:24;99965.59;;;11.23;85.07
17060;BME280;8646;49.716;9.266;2022-11-06T12:56:34;99978.34;;;11.38;85.11
17060;BME280;8646;49.716;9.266;2022-11-06T12:59:49;99963.06;;;11.54;84.00
17060;BME280;8646;49.716;9.266;2022-11-06T13:03:12;99948.69;;;11.69;83.81
17060;BME280;8646;49.716;9.266;2022-11-06T13:06:24;99951.41;;;11.87;82.59
17060;BME280;8646;49.716;9.266;2022-11-06T13:09:34;99930.75;;;11.84;82.47
17060;BME280;8646;49.716;9.266;2022-11-06T13:12:48;99940.97;;;11.96;82.79
17060;BME280;8646;49.716;9.266;2022-11-06T13:15:59;99928.03;;;11.84;82.36
17060;BME280;8646;49.716;9.266;2022-11-06T13:19:09;99926.06;;;11.88;82.38
17060;BME280;8646;49.716;9.266;2022-11-06T13:22:22;99924.50;;;11.83;80.82
17060;BME280;8646;49.716;9.266;2022-11-06T13:25:34;99909.63;;;11.73;78.96
17060;BME280;8646;49.716;9.266;2022-11-06T13:28:42;99910.28;;;11.78;77.80
17060;BME280;8646;49.716;9.266;2022-11-06T13:31:50;99914.91;;;11.76;78.83
17060;BME280;8646;49.716;9.266;2022-11-06T13:34:55;99912.03;;;11.79;78.84
17060;BME280;8646;49.716;9.266;2022-11-06T13:37:59;99902.09;;;11.80;79.00
17060;BME280;8646;49.716;9.266;2022-11-06T13:41:11;99904.78;;;11.80;77.62
17060;BME280;8646;49.716;9.266;2022-11-06T13:44:15;99904.63;;;11.83;78.79
17060;BME280;8646;49.716;9.266;2022-11-06T13:47:21;99896.41;;;11.84;78.13
17060;BME280;8646;49.716;9.266;2022-11-06T13:50:31;99894.66;;;11.83;79.04
17060;BME280;8646;49.716;9.266;2022-11-06T13:53:43;99891.09;;;11.83;78.42
17060;BME280;8646;49.716;9.266;2022-11-06T13:57:11;99887.38;;;11.84;78.27
17060;BME280;8646;49.716;9.266;2022-11-06T14:00:20;99896.31;;;11.86;78.60
17060;BME280;8646;49.716;9.266;2022-11-06T14:03:42;99889.13;;;11.85;78.74
17060;BME280;8646;49.716;9.266;2022-11-06T14:06:51;99890.00;;;11.85;79.08
17060;BME280;8646;49.716;9.266;2022-11-06T14:09:56;99887.50;;;11.82;79.01
17060;BME280;8646;49.716;9.266;2022-11-06T14:13:05;99881.88;;;11.85;78.11
17060;BME280;8646;49.716;9.266;2022-11-06T14:16:28;99887.66;;;11.79;78.64
17060;BME280;8646;49.716;9.266;2022-11-06T14:19:32;99879.34;;;11.82;78.49
17060;BME280;8646;49.716;9.266;2022-11-06T14:22:35;99883.81;;;11.83;78.95
17060;BME280;8646;49.716;9.266;2022-11-06T14:25:57;99891.16;;;11.81;79.24
17060;BME280;8646;49.716;9.266;2022-11-06T14:32:41;99874.97;;;11.80;79.20
17060;BME280;8646;49.716;9.266;2022-11-06T14:35:50;99877.75;;;11.78;78.77
17060;BME280;8646;49.716;9.266;2022-11-06T14:38:53;99844.63;;;11.56;78.84
17060;BME280;8646;49.716;9.266;2022-11-06T14:41:58;99880.06;;;11.69;77.88
17060;BME280;8646;49.716;9.266;2022-11-06T14:45:08;99876.66;;;11.65;78.38
17060;BME280;8646;49.716;9.266;2022-11-06T14:48:24;99875.06;;;11.61;78.57
17060;BME280;8646;49.716;9.266;2022-11-06T14:51:28;99878.72;;;11.60;78.70
17060;BME280;8646;49.716;9.266;2022-11-06T14:54:32;99877.16;;;11.56;78.76
17060;BME280;8646;49.716;9.266;2022-11-06T14:57:43;99870.13;;;11.52;78.29
17060;BME280;8646;49.716;9.266;2022-11-06T15:00:50;99880.19;;;11.50;78.64
17060;BME280;8646;49.716;9.266;2022-11-06T15:03:56;99869.50;;;11.47;79.15
17060;BME280;8646;49.716;9.266;2022-11-06T15:07:08;99873.34;;;11.43;79.40
17060;BME280;8646;49.716;9.266;2022-11-06T15:13:48;99874.06;;;11.29;79.71
17060;BME280;8646;49.716;9.266;2022-11-06T15:16:53;99877.81;;;11.27;79.74
17060;BME280;8646;49.716;9.266;2022-11-06T15:20:26;99881.78;;;11.20;80.03
17060;BME280;8646;49.716;9.266;2022-11-06T15:23:35;99869.31;;;11.17;80.01
17060;BME280;8646;49.716;9.266;2022-11-06T15:26:44;99876.88;;;11.11;79.98
17060;BME280;8646;49.716;9.266;2022-11-06T15:29:52;99880.69;;;11.06;80.24
17060;BME280;8646;49.716;9.266;2022-11-06T15:33:00;99878.44;;;10.97;80.48
17060;BME280;8646;49.716;9.266;2022-11-06T15:36:11;99881.69;;;10.87;80.68
17060;BME280;8646;49.716;9.266;2022-11-06T15:39:22;99876.59;;;10.81;80.75
17060;BME280;8646;49.716;9.266;2022-11-06T15:42:27;99875.00;;;10.77;80.72
17060;BME280;8646;49.716;9.266;2022-11-06T15:45:32;99883.50;;;10.69;81.23
17060;BME280;8646;49.716;9.266;2022-11-06T15:48:35;99878.56;;;10.60;81.92
17060;BME280;8646;49.716;9.266;2022-11-06T15:51:39;99879.66;;;10.56;81.72
17060;BME280;8646;49.716;9.266;2022-11-06T15:54:43;99875.66;;;10.46;82.44
17060;BME280;8646;49.716;9.266;2022-11-06T15:57:49;99875.81;;;10.43;82.82
17060;BME280;8646;49.716;9.266;2022-11-06T16:00:52;99866.44;;;10.50;81.91
17060;BME280;8646;49.716;9.266;2022-11-06T16:03:56;99866.75;;;10.44;82.35
17060;BME280;8646;49.716;9.266;2022-11-06T16:07:00;99863.53;;;10.36;82.95
17060;BME280;8646;49.716;9.266;2022-11-06T16:10:11;99879.78;;;10.36;82.57
17060;BME280;8646;49.716;9.266;2022-11-06T16:13:16;99876.63;;;10.26;82.75
17060;BME280;8646;49.716;9.266;2022-11-06T16:16:35;99879.72;;;10.17;82.77
17060;BME280;8646;49.716;9.266;2022-11-06T16:19:39;99894.97;;;10.19;82.63
17060;BME280;8646;49.716;9.266;2022-11-06T16:22:46;99886.16;;;10.14;83.07
17060;BME280;8646;49.716;9.266;2022-11-06T16:25:56;99880.97;;;10.10;82.49
17060;BME280;8646;49.716;9.266;2022-11-06T16:28:59;99883.75;;;10.08;82.72
17060;BME280;8646;49.716;9.266;2022-11-06T16:32:05;99875.72;;;10.07;82.74
17060;BME280;8646;49.716;9.266;2022-11-06T16:35:28;99886.81;;;10.01;82.12
17060;BME280;8646;49.716;9.266;2022-11-06T16:38:51;99883.19;;;10.02;82.23
17060;BME280;8646;49.716;9.266;2022-11-06T16:41:59;99891.56;;;9.95;81.91
17060;BME280;8646;49.716;9.266;2022-11-06T16:45:14;99890.69;;;9.95;82.04